createdAt,value
2018-07-17T00:02:28.022Z,21.00
2018-07-17T00:12:31.043Z,20.90
2018-07-17T00:22:34.086Z,20.60
2018-07-17T00:32:37.130Z,20.40
2018-07-17T00:42:40.144Z,20.40
2018-07-17T00:52:43.167Z,20.20
2018-07-17T01:02:51.659Z,20.30
2018-07-17T01:12:57.414Z,20.10
2018-07-17T01:23:00.538Z,19.90
2018-07-17T01:33:03.555Z,19.40
2018-07-17T01:43:06.706Z,19.50
2018-07-17T01:53:09.829Z,19.70
2018-07-17T02:03:12.945Z,19.80
2018-07-17T02:13:16.026Z,19.90
2018-07-17T02:23:19.054Z,19.80
2018-07-17T02:33:22.070Z,19.30
2018-07-17T02:43:25.170Z,19.00
2018-07-17T02:53:28.191Z,19.00
2018-07-17T03:03:31.216Z,18.90
2018-07-17T03:13:34.256Z,19.10
2018-07-17T03:23:37.384Z,19.30
2018-07-17T03:33:40.431Z,19.40
2018-07-17T03:43:43.468Z,19.40
2018-07-17T03:53:46.485Z,19.50
2018-07-17T04:03:49.507Z,19.50
2018-07-17T04:13:52.562Z,19.50
2018-07-17T04:23:55.636Z,19.60
2018-07-17T04:33:58.723Z,19.70
2018-07-17T04:44:01.789Z,19.60
2018-07-17T04:54:04.825Z,19.60
2018-07-17T05:04:07.860Z,19.60
2018-07-17T05:14:10.899Z,19.40
2018-07-17T05:24:13.923Z,19.40
2018-07-17T05:34:16.951Z,19.40
2018-07-17T05:44:24.259Z,19.40
2018-07-17T05:54:27.344Z,19.70
2018-07-17T06:04:30.363Z,19.80
2018-07-17T06:14:33.415Z,20.00
2018-07-17T06:24:36.463Z,20.20
2018-07-17T06:34:39.508Z,20.50
2018-07-17T06:44:42.619Z,20.70
2018-07-17T06:54:45.953Z,21.00
2018-07-17T07:04:48.982Z,21.30
2018-07-17T07:14:52.059Z,21.50
2018-07-17T07:24:55.114Z,21.80
2018-07-17T07:34:58.178Z,22.10
2018-07-17T07:45:01.215Z,22.40
2018-07-17T07:55:04.254Z,22.50
2018-07-17T08:05:07.417Z,22.60
2018-07-17T08:15:10.495Z,22.80
2018-07-17T08:25:13.614Z,23.10
2018-07-17T08:45:19.583Z,23.80
2018-07-17T08:55:22.628Z,24.10
2018-07-17T09:05:25.820Z,24.40
2018-07-17T09:15:28.862Z,24.70
2018-07-17T09:25:32.019Z,25.10
2018-07-17T09:35:35.039Z,25.60
2018-07-17T09:45:38.080Z,26.10
2018-07-17T09:55:41.104Z,26.70
2018-07-17T10:05:44.170Z,27.30
2018-07-17T10:15:47.212Z,27.50
2018-07-17T10:25:50.263Z,27.60
2018-07-17T10:35:53.318Z,28.20
2018-07-17T10:45:56.389Z,28.70
2018-07-17T10:55:59.424Z,29.80
2018-07-17T11:06:02.483Z,29.30
2018-07-17T11:26:08.442Z,30.00
2018-07-17T11:36:11.467Z,29.60
2018-07-17T11:46:18.287Z,29.70
2018-07-17T11:56:21.322Z,29.30
2018-07-17T12:06:24.343Z,28.80
2018-07-17T12:16:27.394Z,28.90
2018-07-17T12:26:30.406Z,28.90
2018-07-17T12:36:33.427Z,29.20
2018-07-17T12:56:39.766Z,30.40
2018-07-17T13:06:42.799Z,29.70
2018-07-17T13:16:45.834Z,28.60
2018-07-17T13:26:49.413Z,27.70
2018-07-17T13:36:52.478Z,27.30
2018-07-17T13:46:55.502Z,27.60
2018-07-17T13:56:58.523Z,28.30
2018-07-17T14:07:01.579Z,28.90
2018-07-17T14:17:04.776Z,29.00
2018-07-17T14:27:07.827Z,28.90
2018-07-17T14:37:10.901Z,29.50
2018-07-17T14:47:13.966Z,29.20
2018-07-17T14:57:16.998Z,28.90
2018-07-17T15:07:20.021Z,29.00
2018-07-17T15:17:23.071Z,29.20
2018-07-17T15:27:26.116Z,29.40
2018-07-17T15:37:29.172Z,29.50
2018-07-17T15:47:32.220Z,28.70
2018-07-17T15:57:35.238Z,28.70
2018-07-17T16:07:38.274Z,28.10
2018-07-17T16:17:41.343Z,28.20
2018-07-17T16:27:44.414Z,28.20
2018-07-17T16:37:47.566Z,27.20
2018-07-17T16:47:50.684Z,26.40
2018-07-17T16:57:55.735Z,26.40
2018-07-17T17:07:58.782Z,25.90
2018-07-17T17:18:01.846Z,25.60
2018-07-17T17:28:04.960Z,25.30
2018-07-17T17:38:08.002Z,24.90
2018-07-17T17:48:11.072Z,24.80
2018-07-17T17:58:14.284Z,24.60
2018-07-17T18:08:17.762Z,24.40
2018-07-17T18:18:20.910Z,24.10
2018-07-17T18:28:24.133Z,24.10
2018-07-17T18:38:27.383Z,24.00
2018-07-17T18:48:30.487Z,23.90
2018-07-17T18:58:33.898Z,23.90
2018-07-17T19:08:36.951Z,24.00
2018-07-17T19:18:40.010Z,24.10
2018-07-17T19:28:43.046Z,24.10
2018-07-17T19:38:46.387Z,24.20
2018-07-17T19:48:49.546Z,24.10
2018-07-17T19:58:53.529Z,23.90
2018-07-17T20:08:56.701Z,23.90
2018-07-17T20:18:59.854Z,24.00
2018-07-17T20:29:02.932Z,23.90
2018-07-17T20:39:07.711Z,23.90
2018-07-17T20:49:10.797Z,23.90
2018-07-17T20:59:14.979Z,23.80
2018-07-17T21:09:18.101Z,23.70
2018-07-17T21:19:21.194Z,23.70
2018-07-17T21:29:24.249Z,23.40
2018-07-17T21:39:28.322Z,23.30
2018-07-17T21:49:31.885Z,22.70
2018-07-17T21:59:34.923Z,22.20
2018-07-17T22:09:38.907Z,21.90
2018-07-17T22:19:41.972Z,21.70
2018-07-17T22:29:45.081Z,21.70
2018-07-17T22:39:48.140Z,21.60
2018-07-17T22:49:51.224Z,21.50
2018-07-17T23:09:57.173Z,21.40
2018-07-17T23:20:00.311Z,21.40
2018-07-17T23:30:03.460Z,21.30
2018-07-17T23:40:06.559Z,21.20
2018-07-17T23:50:09.711Z,21.20
